This is the latest recevied weather packets stored in our database for station/object EA7RX-3. If no packets are shown the sender has not sent any weather packets the latest 1 day(s).
| Time | Temp. | Humidity | Pressure | Rain* | Wind** | Luminosity | Snow |
|---|---|---|---|---|---|---|---|
| 1778096303 | 19.44° C | 40% | 1007.2 hPa | - | - | - | - |
| 1778095703 | 19.44° C | 39% | 1007.2 hPa | - | - | - | - |
| 1778095103 | 19.44° C | 39% | 1007.3 hPa | - | - | - | - |
| 1778093903 | 20.56° C | 37% | 1007 hPa | - | - | - | - |
| 1778093303 | 20.56° C | 37% | 1006.9 hPa | - | - | - | - |
| 1778092703 | 21.67° C | 36% | 1006.7 hPa | - | - | - | - |
| 1778092103 | 22.22° C | 35% | 1006.5 hPa | - | - | - | - |
| 1778090903 | 31.67° C | 26% | 1004.3 hPa | - | - | - | - |
| 1778090303 | 32.22° C | 26% | 1004.3 hPa | - | - | - | - |
| 1778089103 | 32.22° C | 26% | 1004.5 hPa | - | - | - | - |
| 1778088503 | 30° C | 29% | 1005 hPa | - | - | - | - |
| 1778087903 | 22.78° C | 37% | 1006.8 hPa | - | - | - | - |
| 1778086703 | 21.67° C | 38% | 1007.2 hPa | - | - | - | - |
| 1778086103 | 21.67° C | 39% | 1007.2 hPa | - | - | - | - |
| 1778085503 | 21.11° C | 40% | 1007.4 hPa | - | - | - | - |
| 1778084903 | 20° C | 41% | 1007.7 hPa | - | - | - | - |
| 1778083703 | 20.56° C | 40% | 1007.6 hPa | - | - | - | - |
| 1778081903 | 21.11° C | 40% | 1007.9 hPa | - | - | - | - |
| 1778081303 | 20.56° C | 42% | 1008 hPa | - | - | - | - |
| 1778080703 | 21.11° C | 40% | 1008.1 hPa | - | - | - | - |
| 1778080103 | 20° C | 43% | 1008.4 hPa | - | - | - | - |
| 1778079503 | 21.67° C | 40% | 1008 hPa | - | - | - | - |
| 1778077703 | 20.56° C | 42% | 1008.9 hPa | - | - | - | - |
| 1778077103 | 20.56° C | 44% | 1009.1 hPa | - | - | - | - |
| 1778076503 | 18.33° C | 49% | 1009.8 hPa | - | - | - | - |
* Rain since midnight (hover to see other rain measurements)
** Current wind speed in m/s (hover to see current wind gust speed)